createdAt,value
2018-12-09T00:01:42.032Z,8.39
2018-12-09T00:04:10.526Z,8.38
2018-12-09T00:06:38.863Z,8.38
2018-12-09T00:09:07.170Z,8.36
2018-12-09T00:11:35.573Z,8.38
2018-12-09T00:14:04.465Z,8.40
2018-12-09T00:16:34.334Z,8.44
2018-12-09T00:19:03.548Z,8.46
2018-12-09T00:21:32.534Z,8.44
2018-12-09T00:24:01.193Z,8.45
2018-12-09T00:26:30.293Z,8.44
2018-12-09T00:28:59.860Z,8.43
2018-12-09T00:31:28.602Z,8.41
2018-12-09T00:33:57.466Z,8.41
2018-12-09T00:36:26.145Z,8.41
2018-12-09T00:38:54.627Z,8.38
2018-12-09T00:41:23.132Z,8.36
2018-12-09T00:43:51.518Z,8.37
2018-12-09T00:46:20.443Z,8.38
2018-12-09T00:48:49.008Z,8.37
2018-12-09T00:51:17.484Z,8.38
2018-12-09T00:53:46.478Z,8.38
2018-12-09T00:56:15.017Z,8.36
2018-12-09T00:58:43.333Z,8.34
2018-12-09T01:01:11.664Z,8.36
2018-12-09T01:03:39.988Z,8.36
2018-12-09T01:06:08.297Z,8.36
2018-12-09T01:08:36.624Z,8.33
2018-12-09T01:11:04.930Z,8.31
2018-12-09T01:13:33.250Z,8.33
2018-12-09T01:16:01.622Z,8.30
2018-12-09T01:18:29.929Z,8.33
2018-12-09T01:20:58.235Z,8.33
2018-12-09T01:23:27.099Z,8.31
2018-12-09T01:25:55.411Z,8.32
2018-12-09T01:28:23.746Z,8.31
2018-12-09T01:30:52.262Z,8.30
2018-12-09T01:33:21.479Z,8.30
2018-12-09T01:35:49.793Z,8.29
2018-12-09T01:38:18.102Z,8.29
2018-12-09T01:40:52.217Z,8.27
2018-12-09T01:43:20.567Z,8.26
2018-12-09T01:45:48.874Z,8.26
2018-12-09T01:48:17.194Z,8.24
2018-12-09T01:50:45.541Z,8.24
2018-12-09T01:53:25.865Z,8.24
2018-12-09T01:55:55.608Z,8.21
2018-12-09T01:58:22.513Z,8.19
2018-12-09T02:00:50.836Z,8.14
2018-12-09T02:03:19.143Z,8.14
2018-12-09T02:05:47.470Z,8.12
2018-12-09T02:08:16.079Z,8.09
2018-12-09T02:10:44.417Z,8.09
2018-12-09T02:13:12.704Z,8.08
2018-12-09T02:15:41.015Z,8.10
2018-12-09T02:18:09.330Z,8.08
2018-12-09T02:20:37.647Z,8.08
2018-12-09T02:23:05.958Z,8.04
2018-12-09T02:25:34.633Z,8.05
2018-12-09T02:28:03.219Z,8.05
2018-12-09T02:30:31.525Z,8.03
2018-12-09T02:32:59.834Z,8.01
2018-12-09T02:35:28.155Z,8.01
2018-12-09T02:37:56.473Z,8.02
2018-12-09T02:40:24.779Z,8.01
2018-12-09T02:42:53.315Z,8.02
2018-12-09T02:45:21.626Z,8.00
2018-12-09T02:47:49.946Z,7.98
2018-12-09T02:50:18.249Z,7.94
2018-12-09T02:52:46.587Z,7.95
2018-12-09T02:55:14.897Z,7.94
2018-12-09T02:57:43.197Z,7.90
2018-12-09T03:00:11.510Z,7.88
2018-12-09T03:02:39.832Z,7.88
2018-12-09T03:05:08.136Z,7.88
2018-12-09T03:07:36.447Z,7.88
2018-12-09T03:10:04.759Z,7.88
2018-12-09T03:12:33.070Z,7.88
2018-12-09T03:15:01.393Z,7.84
2018-12-09T03:17:29.694Z,7.83
2018-12-09T03:19:58.035Z,7.82
2018-12-09T03:22:26.327Z,7.82
2018-12-09T03:24:54.652Z,7.82
2018-12-09T03:27:22.975Z,7.81
2018-12-09T03:29:51.282Z,7.80
2018-12-09T03:32:19.628Z,7.80
2018-12-09T03:34:47.912Z,7.80
2018-12-09T03:37:16.227Z,7.80
2018-12-09T03:39:44.545Z,7.79
2018-12-09T03:42:13.446Z,7.77
2018-12-09T03:44:41.755Z,7.74
2018-12-09T03:47:10.070Z,7.73
2018-12-09T03:49:38.372Z,7.74
2018-12-09T03:52:06.707Z,7.73
2018-12-09T03:54:35.044Z,7.71
2018-12-09T03:57:04.728Z,7.70
2018-12-09T03:59:31.667Z,7.66
2018-12-09T04:01:59.988Z,7.62
2018-12-09T04:04:28.300Z,7.58
2018-12-09T04:06:56.924Z,7.54
2018-12-09T04:09:25.240Z,7.50
2018-12-09T04:11:53.885Z,7.46
2018-12-09T04:14:22.306Z,7.43
2018-12-09T04:16:50.616Z,7.42
2018-12-09T04:19:18.931Z,7.42
2018-12-09T04:21:47.607Z,7.41
2018-12-09T04:24:15.914Z,7.39
2018-12-09T04:26:44.230Z,7.39
2018-12-09T04:29:12.548Z,7.38
2018-12-09T04:31:40.865Z,7.38
2018-12-09T04:34:09.201Z,7.36
2018-12-09T04:36:37.501Z,7.38
2018-12-09T04:39:05.808Z,7.37
2018-12-09T04:41:34.117Z,7.38
2018-12-09T04:44:02.732Z,7.38
2018-12-09T04:46:31.051Z,7.42
2018-12-09T04:48:59.365Z,7.45
2018-12-09T04:51:27.666Z,7.48
2018-12-09T04:53:55.973Z,7.53
2018-12-09T04:56:24.292Z,7.58
2018-12-09T04:58:54.504Z,7.66
2018-12-09T05:01:22.823Z,7.71
2018-12-09T05:03:51.125Z,7.74
2018-12-09T05:06:19.441Z,7.76
2018-12-09T05:08:47.756Z,7.82
2018-12-09T05:11:16.080Z,7.86
2018-12-09T05:13:44.383Z,7.91
2018-12-09T05:16:12.689Z,7.94
2018-12-09T05:18:41.282Z,7.95
2018-12-09T05:21:09.882Z,7.97
2018-12-09T05:23:38.193Z,8.00
2018-12-09T05:26:06.516Z,8.01
2018-12-09T05:28:34.820Z,8.02
2018-12-09T05:31:03.130Z,8.05
2018-12-09T05:33:31.440Z,8.05
2018-12-09T05:35:59.759Z,8.04
2018-12-09T05:38:28.071Z,8.04
2018-12-09T05:40:56.378Z,8.05
2018-12-09T05:43:24.694Z,8.06
2018-12-09T05:45:53.020Z,8.04
2018-12-09T05:48:21.643Z,8.05
2018-12-09T05:50:49.974Z,8.05
2018-12-09T05:53:18.278Z,8.05
2018-12-09T05:55:46.598Z,8.02
2018-12-09T05:58:15.009Z,8.04
2018-12-09T06:00:43.327Z,8.05
2018-12-09T06:03:11.651Z,8.04
2018-12-09T06:05:39.966Z,8.04
2018-12-09T06:08:08.281Z,8.02
2018-12-09T06:10:36.594Z,8.02
2018-12-09T06:13:05.943Z,8.02
2018-12-09T06:15:33.216Z,7.99
2018-12-09T06:18:01.817Z,7.95
2018-12-09T06:20:30.127Z,7.92
2018-12-09T06:22:58.434Z,7.92
2018-12-09T06:25:26.751Z,7.91
2018-12-09T06:27:55.059Z,7.89
2018-12-09T06:30:23.510Z,7.85
2018-12-09T06:32:51.816Z,7.81
2018-12-09T06:35:20.121Z,7.77
2018-12-09T06:37:48.439Z,7.75
2018-12-09T06:40:16.753Z,7.70
2018-12-09T06:42:45.061Z,7.65
2018-12-09T06:45:13.692Z,7.64
2018-12-09T06:47:41.998Z,7.63
2018-12-09T06:50:10.316Z,7.63
2018-12-09T06:52:38.626Z,7.61
2018-12-09T06:55:06.933Z,7.60
2018-12-09T06:57:35.246Z,7.59
2018-12-09T07:00:03.593Z,7.60
2018-12-09T07:02:31.904Z,7.62
2018-12-09T07:05:00.237Z,7.59
2018-12-09T07:07:28.916Z,7.59
2018-12-09T07:09:57.246Z,7.57
2018-12-09T07:12:25.606Z,7.54
2018-12-09T07:14:53.909Z,7.49
2018-12-09T07:17:23.253Z,7.46
2018-12-09T07:19:51.581Z,7.43
2018-12-09T07:22:19.888Z,7.40
2018-12-09T07:24:48.205Z,7.38
2018-12-09T07:27:16.505Z,7.38
2018-12-09T07:29:44.831Z,7.38
2018-12-09T07:32:13.141Z,7.36
2018-12-09T07:34:41.454Z,7.34
2018-12-09T07:37:09.770Z,7.34
2018-12-09T07:39:38.125Z,7.36
2018-12-09T07:42:06.447Z,7.36
2018-12-09T07:44:34.781Z,7.36
2018-12-09T07:47:03.090Z,7.38
2018-12-09T07:49:31.428Z,7.36
2018-12-09T07:51:59.718Z,7.37
2018-12-09T07:54:28.045Z,7.35
2018-12-09T07:56:56.354Z,7.34
2018-12-09T07:59:24.680Z,7.33
2018-12-09T08:01:52.998Z,7.32
2018-12-09T08:04:21.330Z,7.33
2018-12-09T08:06:49.644Z,7.33
2018-12-09T08:09:17.974Z,7.34
2018-12-09T08:11:46.293Z,7.35
2018-12-09T08:14:14.613Z,7.35
2018-12-09T08:16:42.932Z,7.36
2018-12-09T08:19:11.251Z,7.38
2018-12-09T08:21:39.572Z,7.35
2018-12-09T08:24:07.891Z,7.35
2018-12-09T08:26:36.478Z,7.37
2018-12-09T08:29:04.817Z,7.38
2018-12-09T08:31:33.132Z,7.38
2018-12-09T08:34:02.156Z,7.35
2018-12-09T08:36:30.478Z,7.35
2018-12-09T08:38:58.800Z,7.33
2018-12-09T08:41:27.108Z,7.33
2018-12-09T08:43:55.425Z,7.31
2018-12-09T08:46:23.749Z,7.31
2018-12-09T08:48:52.059Z,7.32
2018-12-09T08:51:20.375Z,7.31
2018-12-09T08:53:48.698Z,7.27
2018-12-09T08:56:17.342Z,7.23
2018-12-09T08:58:45.941Z,7.21
2018-12-09T09:01:14.265Z,7.16
2018-12-09T09:03:42.612Z,7.09
2018-12-09T09:06:11.088Z,7.02
2018-12-09T09:08:39.408Z,6.99
2018-12-09T09:11:07.748Z,6.98
2018-12-09T09:13:36.069Z,6.97
2018-12-09T09:16:04.403Z,6.97
2018-12-09T09:18:32.725Z,6.96
2018-12-09T09:21:01.038Z,6.98
2018-12-09T09:23:29.358Z,6.99
2018-12-09T09:25:57.664Z,6.99
2018-12-09T09:28:25.986Z,6.98
2018-12-09T09:30:54.289Z,7.01
2018-12-09T09:33:22.602Z,7.03
2018-12-09T09:35:50.910Z,7.01
2018-12-09T09:38:19.229Z,6.99
2018-12-09T09:40:47.537Z,7.00
2018-12-09T09:43:15.845Z,7.04
2018-12-09T09:45:44.168Z,7.07
2018-12-09T09:48:12.484Z,7.08
2018-12-09T09:50:40.803Z,7.12
2018-12-09T09:53:09.113Z,7.16
2018-12-09T09:55:37.470Z,7.18
2018-12-09T09:58:05.788Z,7.16
2018-12-09T10:00:34.099Z,7.16
2018-12-09T10:03:02.426Z,7.17
2018-12-09T10:05:30.769Z,7.23
2018-12-09T10:07:59.076Z,7.28
2018-12-09T10:10:27.398Z,7.29
2018-12-09T10:12:55.738Z,7.33
2018-12-09T10:15:24.064Z,7.38
2018-12-09T10:17:52.382Z,7.43
2018-12-09T10:20:21.068Z,7.47
2018-12-09T10:22:49.400Z,7.52
2018-12-09T10:25:17.702Z,7.58
2018-12-09T10:27:46.028Z,7.61
2018-12-09T10:30:14.337Z,7.62
2018-12-09T10:32:42.663Z,7.64
2018-12-09T10:35:10.989Z,7.67
2018-12-09T10:37:39.297Z,7.72
2018-12-09T10:40:07.624Z,7.76
2018-12-09T10:42:35.965Z,7.78
2018-12-09T10:45:04.304Z,7.83
2018-12-09T10:47:32.631Z,7.88
2018-12-09T10:50:00.952Z,7.84
2018-12-09T10:52:29.281Z,7.79
2018-12-09T10:54:57.600Z,7.75
2018-12-09T10:57:25.912Z,7.77
2018-12-09T10:59:54.228Z,7.84
2018-12-09T11:02:22.560Z,7.89
2018-12-09T11:04:50.897Z,7.92
2018-12-09T11:07:19.225Z,7.97
2018-12-09T11:09:47.550Z,8.02
2018-12-09T11:12:15.863Z,8.09
2018-12-09T11:14:44.205Z,8.12
2018-12-09T11:17:13.442Z,8.09
2018-12-09T11:19:41.756Z,8.12
2018-12-09T11:22:10.071Z,8.19
2018-12-09T11:24:38.393Z,8.26
2018-12-09T11:27:06.724Z,8.31
2018-12-09T11:29:35.032Z,8.41
2018-12-09T11:32:03.350Z,8.49
2018-12-09T11:34:31.691Z,8.53
2018-12-09T11:37:00.122Z,8.58
2018-12-09T11:39:28.335Z,8.67
2018-12-09T11:41:56.645Z,8.76
2018-12-09T11:44:24.961Z,8.80
2018-12-09T11:46:53.558Z,8.83
2018-12-09T11:49:22.169Z,8.87
2018-12-09T11:51:50.501Z,8.86
2018-12-09T11:54:18.838Z,8.79
2018-12-09T11:56:47.157Z,8.74
2018-12-09T11:59:15.515Z,8.70
2018-12-09T12:01:43.857Z,8.66
2018-12-09T12:04:12.176Z,8.64
2018-12-09T12:06:40.476Z,8.61
2018-12-09T12:09:09.017Z,8.58
2018-12-09T12:11:37.340Z,8.57
2018-12-09T12:14:05.660Z,8.54
2018-12-09T12:16:33.963Z,8.52
2018-12-09T12:19:04.118Z,8.52
2018-12-09T12:21:32.451Z,8.55
2018-12-09T12:24:01.257Z,8.57
2018-12-09T12:26:30.154Z,8.54
2018-12-09T12:28:58.493Z,8.52
2018-12-09T12:31:26.832Z,8.52
2018-12-09T12:33:55.149Z,8.51
2018-12-09T12:36:23.464Z,8.54
2018-12-09T12:38:51.783Z,8.57
2018-12-09T12:41:20.115Z,8.58
2018-12-09T12:43:48.442Z,8.57
2018-12-09T12:46:16.755Z,8.54
2018-12-09T12:48:45.081Z,8.51
2018-12-09T12:51:13.423Z,8.50
2018-12-09T12:53:41.752Z,8.50
2018-12-09T12:56:10.079Z,8.48
2018-12-09T12:58:38.410Z,8.48
2018-12-09T13:01:06.720Z,8.45
2018-12-09T13:03:35.057Z,8.42
2018-12-09T13:06:03.391Z,8.39
2018-12-09T13:08:31.715Z,8.35
2018-12-09T13:11:00.078Z,8.34
2018-12-09T13:13:28.635Z,8.31
2018-12-09T13:15:56.734Z,8.27
2018-12-09T13:18:25.069Z,8.26
2018-12-09T13:20:53.387Z,8.26
2018-12-09T13:23:21.717Z,8.27
2018-12-09T13:25:50.278Z,8.24
2018-12-09T13:28:18.379Z,8.21
2018-12-09T13:30:46.705Z,8.21
2018-12-09T13:33:15.595Z,8.22
2018-12-09T13:35:43.937Z,8.19
2018-12-09T13:38:12.555Z,8.20
2018-12-09T13:40:40.882Z,8.20
2018-12-09T13:43:09.220Z,8.16
2018-12-09T13:45:37.795Z,8.12
2018-12-09T13:48:06.112Z,8.11
2018-12-09T13:50:34.431Z,8.07
2018-12-09T13:53:02.757Z,8.02
2018-12-09T13:55:31.089Z,8.01
2018-12-09T13:57:59.638Z,8.02
2018-12-09T14:00:27.751Z,8.00
2018-12-09T14:02:56.064Z,7.98
2018-12-09T14:05:24.400Z,7.98
2018-12-09T14:07:52.742Z,8.02
2018-12-09T14:10:21.061Z,8.01
2018-12-09T14:12:49.524Z,8.01
2018-12-09T14:15:17.871Z,8.00
2018-12-09T14:17:46.207Z,7.98
2018-12-09T14:20:14.539Z,7.95
2018-12-09T14:22:42.896Z,7.96
2018-12-09T14:25:11.231Z,7.94
2018-12-09T14:27:39.567Z,7.94
2018-12-09T14:30:07.880Z,7.94
2018-12-09T14:32:36.205Z,7.94
2018-12-09T14:35:04.539Z,7.93
2018-12-09T14:37:32.868Z,7.96
2018-12-09T14:40:01.185Z,7.95
2018-12-09T14:42:29.513Z,7.94
2018-12-09T14:44:57.847Z,7.96
2018-12-09T14:47:26.167Z,7.96
2018-12-09T14:49:54.506Z,7.97
2018-12-09T14:52:22.829Z,7.97
2018-12-09T14:54:51.160Z,8.00
2018-12-09T14:57:19.475Z,8.01
2018-12-09T14:59:47.798Z,8.01
2018-12-09T15:02:16.133Z,8.00
2018-12-09T15:04:44.457Z,8.00
2018-12-09T15:07:12.785Z,8.00
2018-12-09T15:09:41.115Z,8.00
2018-12-09T15:12:09.456Z,7.99
2018-12-09T15:14:37.831Z,7.96
2018-12-09T15:17:06.166Z,7.93
2018-12-09T15:19:34.516Z,7.94
2018-12-09T15:22:02.855Z,7.92
2018-12-09T15:24:31.503Z,7.92
2018-12-09T15:26:59.846Z,7.89
2018-12-09T15:29:28.456Z,7.88
2018-12-09T15:31:56.840Z,7.90
2018-12-09T15:34:25.155Z,7.89
2018-12-09T15:36:53.475Z,7.87
2018-12-09T15:39:21.244Z,7.86
2018-12-09T15:41:50.227Z,7.87
2018-12-09T15:44:18.545Z,7.86
2018-12-09T15:46:46.889Z,7.85
2018-12-09T15:49:15.225Z,7.86
2018-12-09T15:51:43.577Z,7.82
2018-12-09T15:54:11.917Z,7.81
2018-12-09T15:56:40.277Z,7.80
2018-12-09T15:59:08.605Z,7.80
2018-12-09T16:01:37.209Z,7.80
2018-12-09T16:04:05.532Z,7.78
2018-12-09T16:06:33.886Z,7.78
2018-12-09T16:09:02.273Z,7.76
2018-12-09T16:11:31.421Z,7.75
2018-12-09T16:13:59.767Z,7.75
2018-12-09T16:16:28.146Z,7.75
2018-12-09T16:18:56.485Z,7.76
2018-12-09T16:21:24.883Z,7.78
2018-12-09T16:23:53.271Z,7.77
2018-12-09T16:26:21.572Z,7.76
2018-12-09T16:28:49.929Z,7.73
2018-12-09T16:31:18.250Z,7.72
2018-12-09T16:33:46.803Z,7.70
2018-12-09T16:36:14.935Z,7.68
2018-12-09T16:38:43.267Z,7.68
2018-12-09T16:41:11.614Z,7.68
2018-12-09T16:43:39.925Z,7.66
2018-12-09T16:46:08.265Z,7.63
2018-12-09T16:48:36.991Z,7.64
2018-12-09T16:51:05.638Z,7.60
2018-12-09T16:53:34.150Z,7.59
2018-12-09T16:56:02.485Z,7.61
2018-12-09T16:58:30.824Z,7.63
2018-12-09T17:00:59.141Z,7.59
2018-12-09T17:03:28.547Z,7.58
2018-12-09T17:05:55.890Z,7.57
2018-12-09T17:08:24.286Z,7.56
2018-12-09T17:10:52.687Z,7.56
2018-12-09T17:13:21.121Z,7.56
2018-12-09T17:15:49.460Z,7.56
2018-12-09T17:18:17.923Z,7.58
2018-12-09T17:20:46.287Z,7.58
2018-12-09T17:23:24.585Z,7.58
2018-12-09T17:25:50.111Z,7.59
2018-12-09T17:28:18.565Z,7.58
2018-12-09T17:30:46.907Z,7.56
2018-12-09T17:33:15.527Z,7.57
2018-12-09T17:35:43.897Z,7.59
2018-12-09T17:38:12.218Z,7.60
2018-12-09T17:40:40.663Z,7.59
2018-12-09T17:43:08.990Z,7.58
2018-12-09T17:45:37.311Z,7.57
2018-12-09T17:48:06.640Z,7.55
2018-12-09T17:50:34.989Z,7.54
2018-12-09T17:53:03.417Z,7.51
2018-12-09T17:55:31.749Z,7.52
2018-12-09T17:58:00.865Z,7.53
2018-12-09T18:00:29.225Z,7.51
2018-12-09T18:02:57.609Z,7.49
2018-12-09T18:05:25.942Z,7.51
2018-12-09T18:07:54.286Z,7.54
2018-12-09T18:10:22.639Z,7.56
2018-12-09T18:12:51.062Z,7.56
2018-12-09T18:15:21.147Z,7.56
2018-12-09T18:17:49.496Z,7.57
2018-12-09T18:20:18.541Z,7.59
2018-12-09T18:22:46.897Z,7.57
2018-12-09T18:25:15.305Z,7.60
2018-12-09T18:27:43.725Z,7.60
2018-12-09T18:30:12.084Z,7.60
2018-12-09T18:32:40.488Z,7.61
2018-12-09T18:35:08.831Z,7.56
2018-12-09T18:37:37.208Z,7.55
2018-12-09T18:40:05.598Z,7.52
2018-12-09T18:42:36.041Z,7.47
2018-12-09T18:45:04.691Z,7.44
2018-12-09T18:47:33.067Z,7.43
2018-12-09T18:50:02.428Z,7.39
2018-12-09T18:52:29.722Z,7.38
2018-12-09T18:54:58.063Z,7.36
2018-12-09T18:57:26.406Z,7.33
2018-12-09T18:59:54.765Z,7.29
2018-12-09T19:02:23.040Z,7.26
2018-12-09T19:04:52.370Z,7.26
2018-12-09T19:07:19.785Z,7.23
2018-12-09T19:09:48.096Z,7.20
2018-12-09T19:12:16.465Z,7.19
2018-12-09T19:14:44.855Z,7.17
2018-12-09T19:17:13.176Z,7.18
2018-12-09T19:19:41.543Z,7.21
2018-12-09T19:22:11.803Z,7.24
2018-12-09T19:24:40.135Z,7.26
2018-12-09T19:27:08.474Z,7.28
2018-12-09T19:29:37.178Z,7.30
2018-12-09T19:32:05.671Z,7.31
2018-12-09T19:34:34.258Z,7.31
2018-12-09T19:37:02.495Z,7.29
2018-12-09T19:39:30.964Z,7.26
2018-12-09T19:41:59.321Z,7.26
2018-12-09T19:44:27.766Z,7.24
2018-12-09T19:46:57.610Z,7.24
2018-12-09T19:49:25.949Z,7.24
2018-12-09T19:51:54.290Z,7.26
2018-12-09T19:54:22.620Z,7.28
2018-12-09T19:56:51.210Z,7.29
2018-12-09T19:59:19.579Z,7.33
2018-12-09T20:01:48.113Z,7.33
2018-12-09T20:04:16.445Z,7.34
2018-12-09T20:06:44.799Z,7.35
2018-12-09T20:09:13.269Z,7.34
2018-12-09T20:11:41.592Z,7.33
2018-12-09T20:14:11.015Z,7.33
2018-12-09T20:16:39.749Z,7.31
2018-12-09T20:19:08.075Z,7.29
2018-12-09T20:21:36.465Z,7.32
2018-12-09T20:24:05.070Z,7.34
2018-12-09T20:26:34.874Z,7.32
2018-12-09T20:29:03.200Z,7.31
2018-12-09T20:31:31.517Z,7.29
2018-12-09T20:33:59.861Z,7.22
2018-12-09T20:36:28.227Z,7.20
2018-12-09T20:38:56.587Z,7.18
2018-12-09T20:41:24.916Z,7.17
2018-12-09T20:43:53.310Z,7.14
2018-12-09T20:46:21.803Z,7.11
2018-12-09T20:48:51.358Z,7.08
2018-12-09T20:51:19.715Z,7.05
2018-12-09T20:53:48.339Z,7.02
2018-12-09T20:56:16.800Z,7.00
2018-12-09T20:58:46.264Z,7.00
2018-12-09T21:01:13.917Z,7.02
2018-12-09T21:03:42.254Z,7.01
2018-12-09T21:06:10.597Z,7.02
2018-12-09T21:08:39.018Z,7.04
2018-12-09T21:11:07.447Z,7.05
2018-12-09T21:13:35.776Z,7.07
2018-12-09T21:16:04.100Z,7.07
2018-12-09T21:18:32.433Z,7.07
2018-12-09T21:21:00.756Z,7.08
2018-12-09T21:23:29.120Z,7.05
2018-12-09T21:25:57.621Z,7.03
2018-12-09T21:28:25.930Z,7.04
2018-12-09T21:30:54.323Z,7.05
2018-12-09T21:33:23.962Z,7.06
2018-12-09T21:35:53.999Z,7.05
2018-12-09T21:38:22.511Z,7.02
2018-12-09T21:40:50.862Z,7.02
2018-12-09T21:43:19.174Z,6.96
2018-12-09T21:45:47.512Z,6.91
2018-12-09T21:48:15.883Z,6.88
2018-12-09T21:50:44.212Z,6.83
2018-12-09T21:53:12.575Z,6.76
2018-12-09T21:55:41.601Z,6.74
2018-12-09T21:58:09.962Z,6.70
2018-12-09T22:00:38.250Z,6.65
2018-12-09T22:03:08.674Z,6.60
2018-12-09T22:05:34.979Z,6.57
2018-12-09T22:08:03.688Z,6.54
2018-12-09T22:10:32.055Z,6.53
2018-12-09T22:13:01.354Z,6.55
2018-12-09T22:15:29.692Z,6.56
2018-12-09T22:17:58.029Z,6.60
2018-12-09T22:20:26.331Z,6.63
2018-12-09T22:22:54.652Z,6.66
2018-12-09T22:25:23.030Z,6.67
2018-12-09T22:27:51.362Z,6.71
2018-12-09T22:30:19.684Z,6.74
2018-12-09T22:32:48.036Z,6.76
2018-12-09T22:35:16.368Z,6.77
2018-12-09T22:37:44.700Z,6.73
2018-12-09T22:40:13.012Z,6.70
2018-12-09T22:42:41.347Z,6.71
2018-12-09T22:45:09.667Z,6.71
2018-12-09T22:47:38.036Z,6.76
2018-12-09T22:50:06.347Z,6.81
2018-12-09T22:52:34.663Z,6.87
2018-12-09T22:55:02.980Z,6.91
2018-12-09T22:57:31.313Z,6.95
2018-12-09T22:59:59.846Z,7.00
2018-12-09T23:02:31.013Z,7.04
2018-12-09T23:04:59.499Z,7.08
2018-12-09T23:07:33.544Z,7.10
2018-12-09T23:10:02.218Z,7.10
2018-12-09T23:12:30.552Z,7.09
2018-12-09T23:14:58.936Z,7.06
2018-12-09T23:17:27.349Z,7.02
2018-12-09T23:19:55.682Z,6.92
2018-12-09T23:22:24.059Z,6.83
2018-12-09T23:24:52.595Z,6.78
2018-12-09T23:27:20.930Z,6.71
2018-12-09T23:29:49.333Z,6.67
2018-12-09T23:32:17.636Z,6.65
2018-12-09T23:34:45.948Z,6.67
2018-12-09T23:37:14.269Z,6.72
2018-12-09T23:39:42.586Z,6.77
2018-12-09T23:42:10.896Z,6.81
2018-12-09T23:44:39.210Z,6.85
2018-12-09T23:47:07.678Z,6.89
2018-12-09T23:49:35.993Z,6.94
2018-12-09T23:52:04.312Z,6.95
2018-12-09T23:54:32.769Z,6.99
2018-12-09T23:57:01.102Z,7.01
2018-12-09T23:59:29.423Z,7.01
